Latest Coastal Weather Observations for Swan Island

IDT60701

Issued at 12:52 am EST Tuesday 28 June 2016 (issued every 10 minutes, with the page automatically refreshed every 10 minutes)

About coastal observations | Map of coastal stations | Coastal observations for TAS | Marine services | Other Formats
Station Details ID: 092123 Name: SWAN ISLAND Lat: -40.73 Lon: 148.12 Height: 15.0 m
Data from the previous 72 hours. | See also: Recent months at Swan Island
Date/Time
EST
Temp
°C
Wind Pressure Rain since
9am
mm
Weather Cloud Vis
km
Sea
Height
m
Swell
Dir  Spd
kts
Gust
kts
hPa Trend Height
m
Period
s
Dir
28/12:30am 12.0 W 13 20 1015.2 - 0.0 - - - - - - -
28/12:00am 11.6 W 16 23 1015.2 - 0.0 - - - - - - -
 
Date/Time
EST
Temp
°C
Wind Pressure Rain since
9am
mm
Weather Cloud Vis
km
Sea
Height
m
Swell
Dir  Spd
kts
Gust
kts
hPa Trend Height
m
Period
s
Dir
27/11:30pm 11.6 W 16 21 1015.2 - 0.0 - - - - - - -
27/11:00pm 11.5 W 16 20 1015.1 - 0.0 - - - - - - -
27/10:30pm 11.6 W 19 24 1015.0 - 0.0 - - - - - - -
27/10:00pm 11.5 W 19 26 1014.9 - 0.0 - - - - - - -
27/09:30pm 11.6 W 18 24 1014.8 - 0.0 - - - - - - -
27/09:00pm 11.7 W 17 24 1014.8 - 0.0 - - - - - - -
27/08:30pm 11.5 W 18 24 1014.6 - 0.0 - - - - - - -
27/08:00pm 11.5 W 15 23 1014.6 - 0.0 - - - - - - -
27/07:30pm 11.3 W 13 18 1014.5 - 0.0 - - - - - - -
27/07:00pm 11.7 W 17 22 1014.2 - 0.0 - - - - - - -
27/06:30pm 11.7 W 15 21 1013.9 - 0.0 - - - - - - -
27/06:00pm 11.6 W 15 21 1013.7 - 0.0 - - - - - - -
27/05:30pm 11.3 W 14 20 1013.4 - 0.0 - - - - - - -
27/05:00pm 11.3 W 15 21 1013.0 - 0.0 - - - - - - -
27/04:30pm 11.6 W 17 22 1012.7 - 0.0 - - - - - - -
27/04:00pm 11.9 W 14 21 1012.4 - 0.0 - - - - - - -
27/03:30pm 12.3 W 14 17 1012.4 - 0.0 - - - - - - -
27/03:00pm 12.5 W 14 19 1012.2 - 0.0 - - - - - - -
27/02:30pm 12.7 W 15 20 1011.9 - 0.0 - - - - - - -
27/02:00pm 12.9 W 14 20 1011.5 - 0.0 - - - - - - -
27/01:30pm 13.0 W 13 19 1011.5 - 0.0 - - - - - - -
27/01:00pm 13.4 W 13 17 1011.6 - 0.0 - - - - - - -
27/12:30pm 13.9 W 11 16 1011.8 - 0.0 - - - - - - -
27/12:00pm 13.7 W 11 14 1011.8 - 0.0 - - - - - - -
27/11:30am 14.1 WNW 9 14 1011.8 - 0.0 - - - - - - -
27/11:00am 13.8 WNW 14 19 1011.8 - 0.0 - - - - - - -
27/10:30am 13.4 WNW 15 22 1012.1 - 0.0 - - - - - - -
27/10:00am 12.5 WNW 16 21 1012.2 - 0.0 - - - - - - -
27/09:30am 12.0 WNW 15 20 1012.4 - 0.0 - - - - - - -
27/09:00am 11.7 NW 15 20 1012.2 - 0.2 Recent precip. - - - - - -
27/08:30am 11.4 WNW 19 26 1012.1 - 0.2 - - - - - - -
27/08:00am 11.4 WNW 20 26 1011.9 - 0.0 - - - - - - -
27/07:30am 11.8 WNW 17 23 1011.9 - 0.0 - - - - - - -
27/07:00am 11.6 WNW 18 25 1011.7 - 0.0 - - - - - - -
27/06:30am 11.6 WNW 20 27 1011.4 - 0.0 - - - - - - -
27/06:00am 11.7 WNW 21 27 1011.1 - 0.0 - - - - - - -
27/05:30am 11.7 WNW 19 27 1010.8 - 0.0 - - - - - - -
27/05:00am 11.7 WNW 19 27 1010.8 - 0.0 - - - - - - -
27/04:30am 11.7 WNW 20 27 1010.8 - 0.0 - - - - - - -
27/04:00am 11.9 WNW 19 24 1010.8 - 0.0 - - - - - - -
27/03:30am 11.6 WNW 18 25 1010.9 - 0.0 - - - - - - -
27/03:00am 11.7 NW 19 27 1011.1 - 0.0 - - - - - - -
27/02:30am 11.8 NW 19 27 1011.2 - 0.0 - - - - - - -
27/02:23am 12.0 WNW 16 27 1011.3 - 0.0 - - - - - - -
27/02:00am 11.6 WNW 17 24 1011.6 - 0.0 - - - - - - -
27/01:30am 11.6 WNW 18 24 1011.5 - 0.0 - - - - - - -
27/01:00am 11.4 WNW 16 24 1011.6 - 0.0 - - - - - - -
27/12:30am 11.4 WNW 15 21 1012.1 - 0.0 - - - - - - -
27/12:00am 11.6 WNW 17 23 1012.3 - 0.0 - - - - - - -
 
Date/Time
EST
Temp
°C
Wind Pressure Rain since
9am
mm
Weather Cloud Vis
km
Sea
Height
m
Swell
Dir  Spd
kts
Gust
kts
hPa Trend Height
m
Period
s
Dir
26/11:30pm 11.4 WNW 18 26 1012.4 - 0.0 - - - - - - -
26/11:00pm 11.7 WNW 18 23 1012.5 - 0.0 - - - - - - -
26/10:30pm 11.5 WNW 20 27 1012.5 - 0.0 - - - - - - -
26/10:00pm 11.6 NW 16 24 1012.7 - 0.0 - - - - - - -
26/09:30pm 11.4 WNW 19 26 1012.8 - 0.0 - - - - - - -
26/09:00pm 11.3 WNW 19 25 1013.1 - 0.0 - - - - - - -
26/08:30pm 11.5 WNW 15 22 1013.4 - 0.0 - - - - - - -
26/08:00pm 11.7 WNW 18 23 1013.4 - 0.0 - - - - - - -
26/07:30pm 11.5 WNW 16 21 1013.5 - 0.0 - - - - - - -
26/07:00pm 11.3 WNW 16 23 1013.5 - 0.0 - - - - - - -
26/06:30pm 11.4 WNW 16 23 1013.6 - 0.0 - - - - - - -
26/06:00pm 11.4 WNW 17 22 1013.6 - 0.0 - - - - - - -
26/05:30pm 11.6 WNW 17 23 1013.5 - 0.0 - - - - - - -
26/05:00pm 11.7 WNW 15 21 1013.5 - 0.0 - - - - - - -
26/04:30pm 11.6 W 13 19 1013.4 - 0.0 - - - - - - -
26/04:00pm 12.2 WNW 16 21 1013.5 - 0.0 - - - - - - -
26/03:30pm 12.5 WNW 15 21 1013.5 - 0.0 - - - - - - -
26/03:00pm 13.3 WNW 15 22 1013.5 - 0.0 - - - - - - -
26/02:30pm 13.0 W 11 18 1013.8 - 0.0 - - - - - - -
26/02:00pm 12.3 W 12 15 1014.0 - 0.0 - - - - - - -
26/01:30pm 12.8 W 11 16 1014.3 - 0.0 - - - - - - -
26/01:00pm 12.9 W 10 13 1014.7 - 0.0 - - - - - - -
26/12:30pm 11.4 W 8 12 1015.3 - 0.0 - - - - - - -
26/12:00pm 11.8 W 9 11 1015.7 - 0.0 - - - - - - -
26/11:30am 11.7 W 9 11 1016.2 - 0.0 - - - - - - -
26/11:00am 11.7 W 9 12 1016.6 - 0.0 - - - - - - -
26/10:30am 11.6 W 7 11 1016.9 - 0.0 - - - - - - -
26/10:00am 11.1 W 8 11 1017.1 - 0.0 - - - - - - -
26/09:30am 10.7 W 8 11 1017.2 - 0.0 - - - - - - -
26/09:00am 10.3 W 8 11 1017.2 - 0.2 - - - - - - -
26/08:30am 9.3 WSW 5 9 1017.0 - 0.2 - - - - - - -
26/08:00am 8.7 WSW 6 8 1017.0 - 0.2 - - - - - - -
26/07:30am 9.0 W 9 11 1016.8 - 0.0 - - - - - - -
26/07:00am 8.9 W 9 12 1016.8 - 0.0 - - - - - - -
26/06:30am 9.0 W 9 11 1016.9 - 0.0 - - - - - - -
26/06:00am 9.2 W 10 13 1016.7 - 0.0 - - - - - - -
26/05:30am 9.2 W 11 14 1016.4 - 0.0 - - - - - - -
26/05:00am 9.2 W 9 12 1016.3 - 0.0 - - - - - - -
26/04:30am 9.2 W 10 14 1016.2 - 0.0 - - - - - - -
26/04:00am 8.5 W 8 11 1016.3 - 0.0 - - - - - - -
26/03:30am 7.7 W 6 9 1016.3 - 0.0 - - - - - - -
26/03:00am 7.5 WSW 4 6 1016.6 - 0.0 - - - - - - -
26/02:30am 7.7 WSW 5 7 1016.8 - 0.0 - - - - - - -
26/02:00am 7.5 W 4 6 1016.8 - 0.0 - - - - - - -
26/01:30am 7.5 W 5 6 1016.8 - 0.0 - - - - - - -
26/01:00am 7.5 WSW 5 7 1016.9 - 0.0 - - - - - - -
26/12:30am 7.8 WSW 5 6 1017.1 - 0.0 - - - - - - -
26/12:00am 7.9 WSW 5 6 1017.3 - 0.0 - - - - - - -
 
Date/Time
EST
Temp
°C
Wind Pressure Rain since
9am
mm
Weather Cloud Vis
km
Sea
Height
m
Swell
Dir  Spd
kts
Gust
kts
hPa Trend Height
m
Period
s
Dir
25/11:30pm 7.9 WSW 4 5 1017.3 - 0.0 - - - - - - -
25/11:00pm 7.6 WSW 4 5 1017.6 - 0.0 - - - - - - -
25/10:30pm 7.7 WSW 5 7 1017.9 - 0.0 - - - - - - -
25/10:00pm 7.5 WSW 5 6 1018.0 - 0.0 - - - - - - -
25/09:30pm 7.6 WSW 5 5 1018.1 - 0.0 - - - - - - -
25/09:00pm 7.6 SW 4 5 1018.1 - 0.0 - - - - - - -
25/08:30pm 7.5 WSW 4 5 1018.3 - 0.0 - - - - - - -
25/08:00pm 7.5 WSW 5 6 1018.3 - 0.0 - - - - - - -
25/07:30pm 8.2 SW 6 7 1018.5 - 0.0 - - - - - - -
25/07:00pm 8.8 WSW 6 8 1018.5 - 0.0 - - - - - - -
25/06:30pm 9.6 WSW 9 15 1018.3 - 0.0 - - - - - - -
25/06:00pm 9.3 WSW 8 13 1018.2 - 0.0 - - - - - - -
25/05:30pm 9.4 WSW 10 15 1018.0 - 0.0 - - - - - - -
25/05:00pm 9.3 W 10 17 1018.1 - 0.0 - - - - - - -
25/04:30pm 9.3 W 10 15 1017.8 - 0.0 - - - - - - -
25/04:00pm 9.7 W 11 15 1017.7 - 0.0 - - - - - - -
25/03:30pm 10.1 W 12 16 1017.6 - 0.0 - - - - - - -
25/03:00pm 10.3 W 11 16 1017.6 - 0.0 - - - - - - -
25/02:30pm 10.5 WSW 9 14 1017.5 - 0.0 - - - - - - -
25/02:00pm 10.6 W 8 13 1017.3 - 0.0 - - - - - - -
25/01:30pm 10.4 W 9 13 1017.3 - 0.0 - - - - - - -
25/01:00pm 10.3 W 10 14 1017.4 - 0.0 - - - - - - -
25/12:30pm 10.1 WSW 9 13 1017.6 - 0.0 - - - - - - -
25/12:00pm 9.6 W 10 14 1017.8 - 0.0 - - - - - - -
25/11:30am 9.6 WSW 9 14 1017.9 - 0.0 - - - - - - -
25/11:00am 9.1 WSW 10 14 1018.1 - 0.0 - - - - - - -
25/10:30am 8.8 WSW 9 14 1018.1 - 0.0 - - - - - - -
25/10:00am 8.2 WSW 9 12 1017.9 - 0.0 - - - - - - -
25/09:30am 7.3 WSW 7 10 1017.5 - 0.0 - - - - - - -
25/09:00am 6.8 WSW 7 11 1017.1 - 0.4 - - - - - - -
25/08:30am 5.8 WSW 7 10 1016.8 - 0.4 - - - - - - -
25/08:00am 5.1 WSW 6 8 1016.4 - 0.4 - - - - - - -
25/07:30am 4.8 WSW 7 10 1016.2 - 0.4 - - - - - - -
25/07:00am 5.0 WSW 7 10 1015.6 - 0.4 - - - - - - -
25/06:30am 5.3 WSW 8 12 1015.5 - 0.4 - - - - - - -
25/06:00am 5.6 WSW 8 12 1014.9 - 0.4 - - - - - - -
25/05:30am 5.2 WSW 7 11 1014.6 - 0.4 - - - - - - -
25/05:00am 5.6 WSW 9 12 1014.2 - 0.4 - - - - - - -
25/04:30am 5.9 WSW 9 14 1013.7 - 0.4 - - - - - - -
25/04:00am 5.6 WSW 8 12 1013.6 - 0.4 - - - - - - -
25/03:30am 5.9 WSW 10 16 1013.2 - 0.4 - - - - - - -
25/03:00am 5.8 WSW 9 14 1012.9 - 0.4 - - - - - - -
25/02:30am 5.2 WSW 6 9 1012.7 - 0.4 - - - - - - -
25/02:00am 5.7 WSW 7 11 1012.4 - 0.4 - - - - - - -
25/01:30am 5.4 SW 7 10 1011.8 - 0.4 - - - - - - -
25/01:00am 5.8 WSW 8 11 1011.4 - 0.4 - - - - - - -

Other Formats:

Comma delimited format used in spreadsheet applications
http://www.bom.gov.au/fwo/IDT60701/IDT60701.95985.axf

JavaScript Object Notation format (JSON) in row-major order
http://www.bom.gov.au/fwo/IDT60701/IDT60701.95985.json